sensor_id;sensor_type;location;lat;lon;timestamp;P1;durP1;ratioP1;P2;durP2;ratioP2
74291;SDS011;62687;55.738;37.516;2023-04-03T00:02:34;28.38;;;13.40;;
74291;SDS011;62687;55.738;37.516;2023-04-03T00:05:21;14.32;;;7.78;;
74291;SDS011;62687;55.738;37.516;2023-04-03T00:08:08;25.80;;;11.65;;
74291;SDS011;62687;55.738;37.516;2023-04-03T00:10:54;18.23;;;9.43;;
74291;SDS011;62687;55.738;37.516;2023-04-03T00:13:39;15.80;;;6.97;;
74291;SDS011;62687;55.738;37.516;2023-04-03T00:16:24;12.52;;;6.18;;
74291;SDS011;62687;55.738;37.516;2023-04-03T00:19:10;11.88;;;5.80;;
74291;SDS011;62687;55.738;37.516;2023-04-03T00:21:57;10.30;;;5.18;;
74291;SDS011;62687;55.738;37.516;2023-04-03T00:24:42;7.88;;;4.72;;
74291;SDS011;62687;55.738;37.516;2023-04-03T00:27:27;12.98;;;5.68;;
74291;SDS011;62687;55.738;37.516;2023-04-03T00:30:16;9.50;;;5.40;;
74291;SDS011;62687;55.738;37.516;2023-04-03T00:33:02;10.35;;;5.28;;
74291;SDS011;62687;55.738;37.516;2023-04-03T00:35:47;10.32;;;5.53;;
74291;SDS011;62687;55.738;37.516;2023-04-03T00:38:33;10.85;;;5.30;;
74291;SDS011;62687;55.738;37.516;2023-04-03T00:41:19;8.77;;;5.40;;
74291;SDS011;62687;55.738;37.516;2023-04-03T00:47:13;10.30;;;5.10;;
74291;SDS011;62687;55.738;37.516;2023-04-03T00:50:00;11.40;;;4.97;;
74291;SDS011;62687;55.738;37.516;2023-04-03T00:52:46;11.27;;;5.10;;
74291;SDS011;62687;55.738;37.516;2023-04-03T00:55:29;10.25;;;5.32;;
74291;SDS011;62687;55.738;37.516;2023-04-03T00:58:14;9.95;;;5.53;;
74291;SDS011;62687;55.738;37.516;2023-04-03T01:01:02;8.48;;;4.88;;
74291;SDS011;62687;55.738;37.516;2023-04-03T01:03:50;11.10;;;5.40;;
74291;SDS011;62687;55.738;37.516;2023-04-03T01:06:35;11.07;;;5.35;;
74291;SDS011;62687;55.738;37.516;2023-04-03T01:09:20;10.60;;;6.15;;
74291;SDS011;62687;55.738;37.516;2023-04-03T01:15:00;11.07;;;5.47;;
74291;SDS011;62687;55.738;37.516;2023-04-03T01:17:56;12.18;;;5.32;;
74291;SDS011;62687;55.738;37.516;2023-04-03T01:21:01;11.95;;;5.50;;
74291;SDS011;62687;55.738;37.516;2023-04-03T01:23:59;11.82;;;5.20;;
74291;SDS011;62687;55.738;37.516;2023-04-03T01:27:11;12.15;;;5.55;;
74291;SDS011;62687;55.738;37.516;2023-04-03T01:29:55;9.95;;;5.47;;
74291;SDS011;62687;55.738;37.516;2023-04-03T01:32:39;11.95;;;5.53;;
74291;SDS011;62687;55.738;37.516;2023-04-03T01:35:24;13.07;;;6.25;;
74291;SDS011;62687;55.738;37.516;2023-04-03T01:38:08;10.68;;;5.13;;
74291;SDS011;62687;55.738;37.516;2023-04-03T01:43:37;11.32;;;5.53;;
74291;SDS011;62687;55.738;37.516;2023-04-03T01:46:21;15.70;;;5.85;;
74291;SDS011;62687;55.738;37.516;2023-04-03T01:49:05;11.98;;;5.28;;
74291;SDS011;62687;55.738;37.516;2023-04-03T01:51:50;10.02;;;5.22;;
74291;SDS011;62687;55.738;37.516;2023-04-03T01:54:34;10.60;;;5.68;;
74291;SDS011;62687;55.738;37.516;2023-04-03T01:57:18;10.85;;;6.03;;
74291;SDS011;62687;55.738;37.516;2023-04-03T02:00:02;11.18;;;5.95;;
74291;SDS011;62687;55.738;37.516;2023-04-03T02:02:47;10.60;;;5.32;;
74291;SDS011;62687;55.738;37.516;2023-04-03T02:05:31;10.68;;;5.72;;
74291;SDS011;62687;55.738;37.516;2023-04-03T02:08:16;10.43;;;5.82;;
74291;SDS011;62687;55.738;37.516;2023-04-03T02:11:03;11.38;;;5.90;;
74291;SDS011;62687;55.738;37.516;2023-04-03T02:13:48;14.85;;;5.88;;
74291;SDS011;62687;55.738;37.516;2023-04-03T02:16:32;13.30;;;6.80;;
74291;SDS011;62687;55.738;37.516;2023-04-03T02:19:17;12.75;;;6.15;;
74291;SDS011;62687;55.738;37.516;2023-04-03T02:22:02;11.55;;;6.50;;
74291;SDS011;62687;55.738;37.516;2023-04-03T02:24:47;11.00;;;6.47;;
74291;SDS011;62687;55.738;37.516;2023-04-03T02:27:31;11.95;;;5.97;;
74291;SDS011;62687;55.738;37.516;2023-04-03T02:30:15;13.50;;;6.03;;
74291;SDS011;62687;55.738;37.516;2023-04-03T02:32:59;12.38;;;6.15;;
74291;SDS011;62687;55.738;37.516;2023-04-03T02:35:43;12.00;;;6.13;;
74291;SDS011;62687;55.738;37.516;2023-04-03T02:38:30;13.15;;;6.38;;
74291;SDS011;62687;55.738;37.516;2023-04-03T02:41:13;13.18;;;6.95;;
74291;SDS011;62687;55.738;37.516;2023-04-03T02:43:58;13.05;;;6.93;;
74291;SDS011;62687;55.738;37.516;2023-04-03T02:46:42;16.13;;;6.60;;
74291;SDS011;62687;55.738;37.516;2023-04-03T02:49:26;10.57;;;5.75;;
74291;SDS011;62687;55.738;37.516;2023-04-03T02:52:10;15.60;;;5.65;;
74291;SDS011;62687;55.738;37.516;2023-04-03T02:54:54;13.95;;;6.90;;
74291;SDS011;62687;55.738;37.516;2023-04-03T02:57:38;9.55;;;5.80;;
74291;SDS011;62687;55.738;37.516;2023-04-03T03:00:22;12.82;;;5.43;;
74291;SDS011;62687;55.738;37.516;2023-04-03T03:03:06;16.00;;;5.57;;
74291;SDS011;62687;55.738;37.516;2023-04-03T03:06:00;13.63;;;5.47;;
74291;SDS011;62687;55.738;37.516;2023-04-03T03:11:32;11.30;;;6.13;;
74291;SDS011;62687;55.738;37.516;2023-04-03T03:14:17;12.10;;;7.10;;
74291;SDS011;62687;55.738;37.516;2023-04-03T03:17:01;13.45;;;6.80;;
74291;SDS011;62687;55.738;37.516;2023-04-03T03:19:45;9.65;;;5.45;;
74291;SDS011;62687;55.738;37.516;2023-04-03T03:22:29;14.13;;;6.43;;
74291;SDS011;62687;55.738;37.516;2023-04-03T03:25:14;17.63;;;7.28;;
74291;SDS011;62687;55.738;37.516;2023-04-03T03:27:58;14.07;;;7.15;;
74291;SDS011;62687;55.738;37.516;2023-04-03T03:30:43;19.30;;;7.03;;
74291;SDS011;62687;55.738;37.516;2023-04-03T03:33:27;15.52;;;7.55;;
74291;SDS011;62687;55.738;37.516;2023-04-03T03:36:12;12.07;;;7.25;;
74291;SDS011;62687;55.738;37.516;2023-04-03T03:38:56;15.43;;;7.00;;
74291;SDS011;62687;55.738;37.516;2023-04-03T03:41:40;21.23;;;7.72;;
74291;SDS011;62687;55.738;37.516;2023-04-03T03:44:24;16.58;;;7.55;;
74291;SDS011;62687;55.738;37.516;2023-04-03T03:47:09;16.98;;;7.57;;
74291;SDS011;62687;55.738;37.516;2023-04-03T03:52:38;16.75;;;7.28;;
74291;SDS011;62687;55.738;37.516;2023-04-03T03:55:22;15.13;;;7.60;;
74291;SDS011;62687;55.738;37.516;2023-04-03T03:58:07;15.60;;;7.55;;
74291;SDS011;62687;55.738;37.516;2023-04-03T04:00:51;13.50;;;7.35;;
74291;SDS011;62687;55.738;37.516;2023-04-03T04:03:35;16.52;;;7.95;;
74291;SDS011;62687;55.738;37.516;2023-04-03T04:06:20;18.95;;;8.63;;
74291;SDS011;62687;55.738;37.516;2023-04-03T04:09:05;18.27;;;7.97;;
74291;SDS011;62687;55.738;37.516;2023-04-03T04:11:49;23.02;;;8.55;;
74291;SDS011;62687;55.738;37.516;2023-04-03T04:14:34;21.88;;;8.93;;
74291;SDS011;62687;55.738;37.516;2023-04-03T04:17:18;18.63;;;8.60;;
74291;SDS011;62687;55.738;37.516;2023-04-03T04:20:02;17.52;;;8.18;;
74291;SDS011;62687;55.738;37.516;2023-04-03T04:22:48;16.42;;;8.15;;
74291;SDS011;62687;55.738;37.516;2023-04-03T04:25:32;17.98;;;9.30;;
74291;SDS011;62687;55.738;37.516;2023-04-03T04:28:17;14.35;;;8.70;;
74291;SDS011;62687;55.738;37.516;2023-04-03T04:31:01;18.00;;;8.73;;
74291;SDS011;62687;55.738;37.516;2023-04-03T04:33:46;14.50;;;8.20;;
74291;SDS011;62687;55.738;37.516;2023-04-03T04:36:30;18.67;;;9.02;;
74291;SDS011;62687;55.738;37.516;2023-04-03T04:39:14;20.02;;;9.68;;
74291;SDS011;62687;55.738;37.516;2023-04-03T04:41:58;17.20;;;8.90;;
74291;SDS011;62687;55.738;37.516;2023-04-03T04:44:43;18.17;;;8.60;;
74291;SDS011;62687;55.738;37.516;2023-04-03T04:47:28;17.65;;;8.75;;
74291;SDS011;62687;55.738;37.516;2023-04-03T04:50:13;16.75;;;8.55;;
74291;SDS011;62687;55.738;37.516;2023-04-03T04:52:57;22.70;;;9.35;;
74291;SDS011;62687;55.738;37.516;2023-04-03T04:55:41;14.75;;;8.48;;
74291;SDS011;62687;55.738;37.516;2023-04-03T04:58:26;21.70;;;8.73;;
74291;SDS011;62687;55.738;37.516;2023-04-03T05:01:10;16.73;;;8.60;;
74291;SDS011;62687;55.738;37.516;2023-04-03T05:03:54;21.88;;;9.85;;
74291;SDS011;62687;55.738;37.516;2023-04-03T05:06:39;18.45;;;8.55;;
74291;SDS011;62687;55.738;37.516;2023-04-03T05:09:24;24.83;;;8.88;;
74291;SDS011;62687;55.738;37.516;2023-04-03T05:12:08;21.27;;;9.10;;
74291;SDS011;62687;55.738;37.516;2023-04-03T05:14:53;22.17;;;9.23;;
74291;SDS011;62687;55.738;37.516;2023-04-03T05:17:37;27.35;;;8.93;;
74291;SDS011;62687;55.738;37.516;2023-04-03T05:20:22;19.90;;;9.02;;
74291;SDS011;62687;55.738;37.516;2023-04-03T05:23:06;28.00;;;9.27;;
74291;SDS011;62687;55.738;37.516;2023-04-03T05:25:51;18.95;;;8.60;;
74291;SDS011;62687;55.738;37.516;2023-04-03T05:31:20;21.10;;;9.07;;
74291;SDS011;62687;55.738;37.516;2023-04-03T05:34:04;21.33;;;9.02;;
74291;SDS011;62687;55.738;37.516;2023-04-03T05:36:49;19.70;;;9.48;;
74291;SDS011;62687;55.738;37.516;2023-04-03T05:39:33;20.60;;;8.73;;
74291;SDS011;62687;55.738;37.516;2023-04-03T05:42:18;21.75;;;8.48;;
74291;SDS011;62687;55.738;37.516;2023-04-03T05:45:02;20.10;;;10.40;;
74291;SDS011;62687;55.738;37.516;2023-04-03T05:47:47;20.33;;;9.18;;
74291;SDS011;62687;55.738;37.516;2023-04-03T05:50:31;27.88;;;13.15;;
74291;SDS011;62687;55.738;37.516;2023-04-03T05:53:17;22.85;;;8.93;;
74291;SDS011;62687;55.738;37.516;2023-04-03T05:56:05;28.42;;;10.02;;
74291;SDS011;62687;55.738;37.516;2023-04-03T05:58:50;23.02;;;9.32;;
74291;SDS011;62687;55.738;37.516;2023-04-03T06:01:34;26.25;;;9.38;;
74291;SDS011;62687;55.738;37.516;2023-04-03T06:04:19;29.73;;;9.05;;
74291;SDS011;62687;55.738;37.516;2023-04-03T06:07:04;22.88;;;9.45;;
74291;SDS011;62687;55.738;37.516;2023-04-03T06:09:51;24.88;;;9.15;;
74291;SDS011;62687;55.738;37.516;2023-04-03T06:12:35;27.08;;;10.80;;
74291;SDS011;62687;55.738;37.516;2023-04-03T06:15:19;22.42;;;9.75;;
74291;SDS011;62687;55.738;37.516;2023-04-03T06:18:03;27.17;;;9.77;;
74291;SDS011;62687;55.738;37.516;2023-04-03T06:20:48;26.58;;;10.82;;
74291;SDS011;62687;55.738;37.516;2023-04-03T06:23:32;26.60;;;9.77;;
74291;SDS011;62687;55.738;37.516;2023-04-03T06:26:16;21.38;;;10.80;;
74291;SDS011;62687;55.738;37.516;2023-04-03T06:29:00;21.20;;;9.25;;
74291;SDS011;62687;55.738;37.516;2023-04-03T06:31:45;29.27;;;9.73;;
74291;SDS011;62687;55.738;37.516;2023-04-03T06:34:30;22.92;;;9.70;;
74291;SDS011;62687;55.738;37.516;2023-04-03T06:37:15;28.60;;;9.50;;
74291;SDS011;62687;55.738;37.516;2023-04-03T06:40:02;23.30;;;9.25;;
74291;SDS011;62687;55.738;37.516;2023-04-03T06:42:46;27.65;;;9.90;;
74291;SDS011;62687;55.738;37.516;2023-04-03T06:45:31;24.60;;;9.30;;
74291;SDS011;62687;55.738;37.516;2023-04-03T06:48:15;33.15;;;10.40;;
74291;SDS011;62687;55.738;37.516;2023-04-03T06:50:59;23.48;;;9.30;;
74291;SDS011;62687;55.738;37.516;2023-04-03T06:53:43;30.48;;;10.38;;
74291;SDS011;62687;55.738;37.516;2023-04-03T06:56:28;30.58;;;10.10;;
74291;SDS011;62687;55.738;37.516;2023-04-03T06:59:12;24.67;;;9.48;;
74291;SDS011;62687;55.738;37.516;2023-04-03T07:02:00;29.45;;;11.13;;
74291;SDS011;62687;55.738;37.516;2023-04-03T07:04:45;30.23;;;10.07;;
74291;SDS011;62687;55.738;37.516;2023-04-03T07:07:29;32.83;;;9.45;;
74291;SDS011;62687;55.738;37.516;2023-04-03T07:10:13;31.75;;;9.30;;
74291;SDS011;62687;55.738;37.516;2023-04-03T07:12:57;22.85;;;9.07;;
74291;SDS011;62687;55.738;37.516;2023-04-03T07:15:41;30.75;;;10.65;;
74291;SDS011;62687;55.738;37.516;2023-04-03T07:18:25;24.17;;;10.25;;
74291;SDS011;62687;55.738;37.516;2023-04-03T07:21:10;25.25;;;9.25;;
74291;SDS011;62687;55.738;37.516;2023-04-03T07:23:54;24.98;;;9.23;;
74291;SDS011;62687;55.738;37.516;2023-04-03T07:26:38;29.75;;;9.27;;
74291;SDS011;62687;55.738;37.516;2023-04-03T07:29:23;35.38;;;11.18;;
74291;SDS011;62687;55.738;37.516;2023-04-03T07:32:07;26.95;;;8.77;;
74291;SDS011;62687;55.738;37.516;2023-04-03T07:34:51;24.63;;;9.27;;
74291;SDS011;62687;55.738;37.516;2023-04-03T07:37:35;29.92;;;9.85;;
74291;SDS011;62687;55.738;37.516;2023-04-03T07:40:20;25.63;;;10.63;;
74291;SDS011;62687;55.738;37.516;2023-04-03T07:43:05;24.48;;;8.77;;
74291;SDS011;62687;55.738;37.516;2023-04-03T07:45:49;22.73;;;8.77;;
74291;SDS011;62687;55.738;37.516;2023-04-03T07:48:34;30.98;;;9.73;;
74291;SDS011;62687;55.738;37.516;2023-04-03T07:51:18;30.42;;;9.32;;
74291;SDS011;62687;55.738;37.516;2023-04-03T07:54:04;35.15;;;11.77;;
74291;SDS011;62687;55.738;37.516;2023-04-03T07:56:48;23.95;;;8.93;;
74291;SDS011;62687;55.738;37.516;2023-04-03T07:59:33;31.98;;;9.68;;
74291;SDS011;62687;55.738;37.516;2023-04-03T08:02:17;38.00;;;9.27;;
74291;SDS011;62687;55.738;37.516;2023-04-03T08:05:01;36.17;;;9.82;;
74291;SDS011;62687;55.738;37.516;2023-04-03T08:07:46;39.88;;;9.50;;
74291;SDS011;62687;55.738;37.516;2023-04-03T08:10:31;27.85;;;9.85;;
74291;SDS011;62687;55.738;37.516;2023-04-03T08:13:15;23.02;;;8.32;;
74291;SDS011;62687;55.738;37.516;2023-04-03T08:16:06;26.30;;;9.18;;
74291;SDS011;62687;55.738;37.516;2023-04-03T08:18:58;30.33;;;9.07;;
74291;SDS011;62687;55.738;37.516;2023-04-03T08:21:43;22.10;;;8.30;;
74291;SDS011;62687;55.738;37.516;2023-04-03T08:24:27;22.13;;;8.82;;
74291;SDS011;62687;55.738;37.516;2023-04-03T08:27:12;24.80;;;8.68;;
74291;SDS011;62687;55.738;37.516;2023-04-03T08:29:56;25.55;;;8.65;;
74291;SDS011;62687;55.738;37.516;2023-04-03T08:32:40;31.58;;;9.98;;
74291;SDS011;62687;55.738;37.516;2023-04-03T08:35:28;30.33;;;9.30;;
74291;SDS011;62687;55.738;37.516;2023-04-03T08:38:12;25.58;;;9.27;;
74291;SDS011;62687;55.738;37.516;2023-04-03T08:41:40;27.63;;;10.15;;
74291;SDS011;62687;55.738;37.516;2023-04-03T08:50:12;25.70;;;9.98;;
74291;SDS011;62687;55.738;37.516;2023-04-03T08:53:00;23.10;;;9.48;;
74291;SDS011;62687;55.738;37.516;2023-04-03T08:55:50;27.50;;;10.10;;
74291;SDS011;62687;55.738;37.516;2023-04-03T08:58:43;32.33;;;10.25;;
74291;SDS011;62687;55.738;37.516;2023-04-03T09:01:39;31.15;;;9.85;;
74291;SDS011;62687;55.738;37.516;2023-04-03T09:04:24;33.28;;;9.48;;
74291;SDS011;62687;55.738;37.516;2023-04-03T09:07:15;31.70;;;10.60;;
74291;SDS011;62687;55.738;37.516;2023-04-03T09:10:06;24.00;;;9.73;;
74291;SDS011;62687;55.738;37.516;2023-04-03T09:13:01;24.45;;;10.65;;
74291;SDS011;62687;55.738;37.516;2023-04-03T09:15:55;32.72;;;10.52;;
74291;SDS011;62687;55.738;37.516;2023-04-03T09:18:41;25.92;;;10.30;;
74291;SDS011;62687;55.738;37.516;2023-04-03T09:21:36;30.48;;;10.57;;
74291;SDS011;62687;55.738;37.516;2023-04-03T09:24:25;34.83;;;10.88;;
74291;SDS011;62687;55.738;37.516;2023-04-03T09:29:56;31.25;;;11.65;;
74291;SDS011;62687;55.738;37.516;2023-04-03T09:32:41;38.60;;;11.15;;
74291;SDS011;62687;55.738;37.516;2023-04-03T09:35:28;28.02;;;10.40;;
74291;SDS011;62687;55.738;37.516;2023-04-03T09:38:16;38.85;;;12.25;;
74291;SDS011;62687;55.738;37.516;2023-04-03T09:43:52;31.60;;;10.70;;
74291;SDS011;62687;55.738;37.516;2023-04-03T09:46:37;36.65;;;11.48;;
74291;SDS011;62687;55.738;37.516;2023-04-03T09:49:23;34.35;;;11.18;;
74291;SDS011;62687;55.738;37.516;2023-04-03T09:52:23;28.85;;;10.55;;
74291;SDS011;62687;55.738;37.516;2023-04-03T09:55:16;35.85;;;12.05;;
74291;SDS011;62687;55.738;37.516;2023-04-03T10:04:22;31.13;;;12.10;;
74291;SDS011;62687;55.738;37.516;2023-04-03T10:10:20;27.67;;;10.95;;
74291;SDS011;62687;55.738;37.516;2023-04-03T10:13:15;33.90;;;11.35;;
74291;SDS011;62687;55.738;37.516;2023-04-03T10:16:08;35.22;;;11.38;;
74291;SDS011;62687;55.738;37.516;2023-04-03T10:25:12;35.92;;;10.90;;
74291;SDS011;62687;55.738;37.516;2023-04-03T10:31:10;22.65;;;10.13;;
74291;SDS011;62687;55.738;37.516;2023-04-03T10:37:16;37.50;;;9.40;;
74291;SDS011;62687;55.738;37.516;2023-04-03T10:40:22;30.65;;;9.30;;
74291;SDS011;62687;55.738;37.516;2023-04-03T10:59:45;28.58;;;9.57;;
74291;SDS011;62687;55.738;37.516;2023-04-03T11:03:17;22.17;;;8.90;;
74291;SDS011;62687;55.738;37.516;2023-04-03T11:05:43;31.17;;;9.07;;
74291;SDS011;62687;55.738;37.516;2023-04-03T11:08:43;21.50;;;8.80;;
74291;SDS011;62687;55.738;37.516;2023-04-03T11:11:36;27.65;;;8.55;;
74291;SDS011;62687;55.738;37.516;2023-04-03T11:14:27;24.35;;;9.00;;
74291;SDS011;62687;55.738;37.516;2023-04-03T11:20:15;28.35;;;8.57;;
74291;SDS011;62687;55.738;37.516;2023-04-03T11:23:06;20.45;;;8.00;;
74291;SDS011;62687;55.738;37.516;2023-04-03T11:25:59;17.83;;;8.52;;
74291;SDS011;62687;55.738;37.516;2023-04-03T11:29:07;21.25;;;8.13;;
74291;SDS011;62687;55.738;37.516;2023-04-03T11:34:46;19.42;;;7.85;;
74291;SDS011;62687;55.738;37.516;2023-04-03T11:37:35;21.35;;;7.97;;
74291;SDS011;62687;55.738;37.516;2023-04-03T11:40:26;24.13;;;7.90;;
74291;SDS011;62687;55.738;37.516;2023-04-03T11:43:20;18.60;;;8.25;;
74291;SDS011;62687;55.738;37.516;2023-04-03T11:46:09;19.98;;;7.80;;
74291;SDS011;62687;55.738;37.516;2023-04-03T11:48:54;19.90;;;8.02;;
74291;SDS011;62687;55.738;37.516;2023-04-03T11:51:40;21.15;;;9.02;;
74291;SDS011;62687;55.738;37.516;2023-04-03T11:54:45;16.08;;;8.00;;
74291;SDS011;62687;55.738;37.516;2023-04-03T12:00:56;25.05;;;8.35;;
74291;SDS011;62687;55.738;37.516;2023-04-03T12:04:06;26.67;;;8.60;;
74291;SDS011;62687;55.738;37.516;2023-04-03T12:07:11;20.05;;;8.25;;
74291;SDS011;62687;55.738;37.516;2023-04-03T12:09:58;20.73;;;8.98;;
74291;SDS011;62687;55.738;37.516;2023-04-03T12:12:54;23.95;;;8.35;;
74291;SDS011;62687;55.738;37.516;2023-04-03T12:24:41;25.98;;;9.07;;
74291;SDS011;62687;55.738;37.516;2023-04-03T12:27:27;25.20;;;8.43;;
74291;SDS011;62687;55.738;37.516;2023-04-03T12:30:24;32.45;;;10.52;;
74291;SDS011;62687;55.738;37.516;2023-04-03T12:33:18;33.03;;;10.57;;
74291;SDS011;62687;55.738;37.516;2023-04-03T12:36:23;21.27;;;8.80;;
74291;SDS011;62687;55.738;37.516;2023-04-03T12:45:39;20.20;;;7.90;;
74291;SDS011;62687;55.738;37.516;2023-04-03T12:48:24;31.38;;;7.80;;
74291;SDS011;62687;55.738;37.516;2023-04-03T12:51:14;23.02;;;6.80;;
74291;SDS011;62687;55.738;37.516;2023-04-03T12:54:23;24.83;;;6.05;;
74291;SDS011;62687;55.738;37.516;2023-04-03T12:57:20;22.17;;;6.25;;
74291;SDS011;62687;55.738;37.516;2023-04-03T13:00:31;36.03;;;6.80;;
74291;SDS011;62687;55.738;37.516;2023-04-03T13:03:24;20.23;;;5.43;;
74291;SDS011;62687;55.738;37.516;2023-04-03T13:06:21;17.60;;;5.05;;
74291;SDS011;62687;55.738;37.516;2023-04-03T13:09:44;23.15;;;4.95;;
74291;SDS011;62687;55.738;37.516;2023-04-03T13:12:21;22.45;;;6.03;;
74291;SDS011;62687;55.738;37.516;2023-04-03T13:15:16;24.70;;;5.07;;
74291;SDS011;62687;55.738;37.516;2023-04-03T13:18:03;22.00;;;6.25;;
74291;SDS011;62687;55.738;37.516;2023-04-03T13:20:47;23.08;;;6.05;;
74291;SDS011;62687;55.738;37.516;2023-04-03T13:23:34;25.50;;;5.18;;
74291;SDS011;62687;55.738;37.516;2023-04-03T13:26:22;28.45;;;5.20;;
74291;SDS011;62687;55.738;37.516;2023-04-03T13:29:19;19.58;;;5.57;;
74291;SDS011;62687;55.738;37.516;2023-04-03T13:32:06;23.75;;;5.28;;
74291;SDS011;62687;55.738;37.516;2023-04-03T13:35:01;16.67;;;5.38;;
74291;SDS011;62687;55.738;37.516;2023-04-03T13:37:54;20.05;;;5.50;;
74291;SDS011;62687;55.738;37.516;2023-04-03T13:40:51;19.50;;;6.60;;
74291;SDS011;62687;55.738;37.516;2023-04-03T13:43:38;16.70;;;5.28;;
74291;SDS011;62687;55.738;37.516;2023-04-03T13:46:24;20.20;;;5.32;;
74291;SDS011;62687;55.738;37.516;2023-04-03T13:58:20;17.55;;;5.35;;
74291;SDS011;62687;55.738;37.516;2023-04-03T14:01:19;19.05;;;5.47;;
74291;SDS011;62687;55.738;37.516;2023-04-03T14:07:28;15.15;;;5.60;;
74291;SDS011;62687;55.738;37.516;2023-04-03T14:10:14;20.50;;;5.80;;
74291;SDS011;62687;55.738;37.516;2023-04-03T14:12:58;21.55;;;5.82;;
74291;SDS011;62687;55.738;37.516;2023-04-03T14:15:43;10.52;;;5.20;;
74291;SDS011;62687;55.738;37.516;2023-04-03T14:18:28;12.10;;;5.10;;
74291;SDS011;62687;55.738;37.516;2023-04-03T14:21:13;16.38;;;5.72;;
74291;SDS011;62687;55.738;37.516;2023-04-03T14:23:58;13.57;;;5.53;;
74291;SDS011;62687;55.738;37.516;2023-04-03T14:26:43;13.32;;;5.30;;
74291;SDS011;62687;55.738;37.516;2023-04-03T14:29:27;13.65;;;4.97;;
74291;SDS011;62687;55.738;37.516;2023-04-03T14:32:12;16.80;;;5.43;;
74291;SDS011;62687;55.738;37.516;2023-04-03T14:34:58;13.13;;;5.45;;
74291;SDS011;62687;55.738;37.516;2023-04-03T14:37:38;13.52;;;4.70;;
74291;SDS011;62687;55.738;37.516;2023-04-03T14:40:24;12.52;;;4.30;;
74291;SDS011;62687;55.738;37.516;2023-04-03T14:43:10;9.75;;;4.65;;
74291;SDS011;62687;55.738;37.516;2023-04-03T14:45:56;12.05;;;4.50;;
74291;SDS011;62687;55.738;37.516;2023-04-03T14:48:41;15.63;;;4.65;;
74291;SDS011;62687;55.738;37.516;2023-04-03T14:51:25;19.20;;;5.25;;
74291;SDS011;62687;55.738;37.516;2023-04-03T14:54:19;20.02;;;5.18;;
74291;SDS011;62687;55.738;37.516;2023-04-03T14:57:09;17.90;;;4.88;;
74291;SDS011;62687;55.738;37.516;2023-04-03T14:59:57;16.60;;;5.38;;
74291;SDS011;62687;55.738;37.516;2023-04-03T15:02:41;22.75;;;5.45;;
74291;SDS011;62687;55.738;37.516;2023-04-03T15:05:25;20.58;;;5.03;;
74291;SDS011;62687;55.738;37.516;2023-04-03T15:08:16;18.02;;;5.00;;
74291;SDS011;62687;55.738;37.516;2023-04-03T15:11:05;12.55;;;4.93;;
74291;SDS011;62687;55.738;37.516;2023-04-03T15:13:50;19.48;;;5.15;;
74291;SDS011;62687;55.738;37.516;2023-04-03T15:16:34;24.58;;;6.05;;
74291;SDS011;62687;55.738;37.516;2023-04-03T15:19:18;17.60;;;6.07;;
74291;SDS011;62687;55.738;37.516;2023-04-03T15:22:03;21.25;;;5.68;;
74291;SDS011;62687;55.738;37.516;2023-04-03T15:24:47;20.20;;;5.93;;
74291;SDS011;62687;55.738;37.516;2023-04-03T15:27:31;39.30;;;6.72;;
74291;SDS011;62687;55.738;37.516;2023-04-03T15:30:16;23.40;;;6.28;;
74291;SDS011;62687;55.738;37.516;2023-04-03T15:33:02;20.77;;;6.40;;
74291;SDS011;62687;55.738;37.516;2023-04-03T15:35:46;20.15;;;7.90;;
74291;SDS011;62687;55.738;37.516;2023-04-03T15:38:30;20.87;;;5.80;;
74291;SDS011;62687;55.738;37.516;2023-04-03T15:41:15;22.55;;;8.15;;
74291;SDS011;62687;55.738;37.516;2023-04-03T15:43:59;23.65;;;6.43;;
74291;SDS011;62687;55.738;37.516;2023-04-03T15:46:47;23.02;;;6.88;;
74291;SDS011;62687;55.738;37.516;2023-04-03T15:49:35;14.73;;;6.10;;
74291;SDS011;62687;55.738;37.516;2023-04-03T15:52:19;19.35;;;6.40;;
74291;SDS011;62687;55.738;37.516;2023-04-03T15:55:04;26.40;;;7.70;;
74291;SDS011;62687;55.738;37.516;2023-04-03T15:57:48;26.83;;;8.40;;
74291;SDS011;62687;55.738;37.516;2023-04-03T16:00:32;17.38;;;7.68;;
74291;SDS011;62687;55.738;37.516;2023-04-03T16:03:18;21.33;;;6.93;;
74291;SDS011;62687;55.738;37.516;2023-04-03T16:06:05;17.83;;;6.05;;
74291;SDS011;62687;55.738;37.516;2023-04-03T16:08:49;24.50;;;7.35;;
74291;SDS011;62687;55.738;37.516;2023-04-03T16:11:33;18.45;;;6.10;;
74291;SDS011;62687;55.738;37.516;2023-04-03T16:14:19;20.08;;;7.13;;
74291;SDS011;62687;55.738;37.516;2023-04-03T16:17:03;17.38;;;6.97;;
74291;SDS011;62687;55.738;37.516;2023-04-03T16:19:47;19.13;;;6.32;;
74291;SDS011;62687;55.738;37.516;2023-04-03T16:22:31;22.05;;;7.55;;
74291;SDS011;62687;55.738;37.516;2023-04-03T16:25:16;15.63;;;6.53;;
74291;SDS011;62687;55.738;37.516;2023-04-03T16:28:01;24.15;;;6.60;;
74291;SDS011;62687;55.738;37.516;2023-04-03T16:30:45;14.98;;;6.53;;
74291;SDS011;62687;55.738;37.516;2023-04-03T16:33:31;18.27;;;7.35;;
74291;SDS011;62687;55.738;37.516;2023-04-03T16:36:15;14.73;;;6.35;;
74291;SDS011;62687;55.738;37.516;2023-04-03T16:39:00;22.48;;;7.00;;
74291;SDS011;62687;55.738;37.516;2023-04-03T16:41:44;22.05;;;6.38;;
74291;SDS011;62687;55.738;37.516;2023-04-03T16:44:29;15.10;;;7.13;;
74291;SDS011;62687;55.738;37.516;2023-04-03T16:47:13;19.45;;;6.88;;
74291;SDS011;62687;55.738;37.516;2023-04-03T16:49:57;20.58;;;7.38;;
74291;SDS011;62687;55.738;37.516;2023-04-03T16:52:41;16.73;;;6.40;;
74291;SDS011;62687;55.738;37.516;2023-04-03T16:55:26;16.02;;;6.97;;
74291;SDS011;62687;55.738;37.516;2023-04-03T16:58:10;16.33;;;7.45;;
74291;SDS011;62687;55.738;37.516;2023-04-03T17:00:54;12.07;;;5.20;;
74291;SDS011;62687;55.738;37.516;2023-04-03T17:03:39;9.82;;;5.50;;
74291;SDS011;62687;55.738;37.516;2023-04-03T17:06:23;13.82;;;5.20;;
74291;SDS011;62687;55.738;37.516;2023-04-03T17:09:08;11.85;;;5.30;;
74291;SDS011;62687;55.738;37.516;2023-04-03T17:11:53;13.20;;;5.85;;
74291;SDS011;62687;55.738;37.516;2023-04-03T17:14:37;15.48;;;5.40;;
74291;SDS011;62687;55.738;37.516;2023-04-03T17:17:22;14.63;;;6.20;;
74291;SDS011;62687;55.738;37.516;2023-04-03T17:20:08;20.48;;;6.25;;
74291;SDS011;62687;55.738;37.516;2023-04-03T17:22:54;17.42;;;6.03;;
74291;SDS011;62687;55.738;37.516;2023-04-03T17:25:38;19.45;;;6.68;;
74291;SDS011;62687;55.738;37.516;2023-04-03T17:28:22;17.35;;;7.18;;
74291;SDS011;62687;55.738;37.516;2023-04-03T17:31:11;19.88;;;7.97;;
74291;SDS011;62687;55.738;37.516;2023-04-03T17:33:55;19.13;;;7.57;;
74291;SDS011;62687;55.738;37.516;2023-04-03T17:36:40;15.43;;;8.10;;
74291;SDS011;62687;55.738;37.516;2023-04-03T17:39:24;13.18;;;6.72;;
74291;SDS011;62687;55.738;37.516;2023-04-03T17:42:08;14.23;;;6.38;;
74291;SDS011;62687;55.738;37.516;2023-04-03T17:44:52;13.35;;;6.53;;
74291;SDS011;62687;55.738;37.516;2023-04-03T17:47:36;11.73;;;6.40;;
74291;SDS011;62687;55.738;37.516;2023-04-03T17:50:20;14.93;;;6.18;;
74291;SDS011;62687;55.738;37.516;2023-04-03T17:53:04;13.52;;;6.45;;
74291;SDS011;62687;55.738;37.516;2023-04-03T17:55:48;18.90;;;6.30;;
74291;SDS011;62687;55.738;37.516;2023-04-03T17:58:33;15.35;;;6.25;;
74291;SDS011;62687;55.738;37.516;2023-04-03T18:04:03;20.30;;;7.60;;